Time;durP1;ratioP1;P1;durP2;ratioP2;P2;SDS_P1;SDS_P2;PMS_P1;PMS_P2;Temp;Humidity;BMP_temperature;BMP_pressure;BME280_temperature;BME280_humidity;BME280_pressure;Samples;Min_cycle;Max_cycle;Signal;HPM_P1;HPM_P2
2023/05/02 00:01:52;;;;;;;27.02;11.02;;;11.00;99.90;;;;;;5039099;28;20434;-67
2023/05/02 00:04:17;;;;;;;34.13;12.88;;;10.90;99.90;;;;;;5039286;28;20029;-66
2023/05/02 00:06:45;;;;;;;24.17;9.70;;;10.90;99.90;;;;;;5054730;28;20149;-65
2023/05/02 00:09:11;;;;;;;30.13;10.98;;;11.00;99.90;;;;;;5037468;28;20247;-64
2023/05/02 00:11:36;;;;;;;23.92;9.27;;;10.90;99.90;;;;;;5040325;28;20049;-63
2023/05/02 00:14:02;;;;;;;29.13;9.90;;;10.90;99.90;;;;;;5042455;28;20424;-66
2023/05/02 00:16:28;;;;;;;31.05;9.77;;;10.90;99.90;;;;;;5037733;28;20044;-66
2023/05/02 00:18:53;;;;;;;24.33;9.95;;;10.80;99.90;;;;;;5041278;28;20880;-66
2023/05/02 00:21:19;;;;;;;24.65;7.60;;;10.70;99.90;;;;;;5040297;28;20040;-66
2023/05/02 00:23:44;;;;;;;31.33;9.57;;;10.60;99.90;;;;;;5037669;28;20087;-66
2023/05/02 00:26:10;;;;;;;21.60;8.13;;;10.50;99.90;;;;;;5040117;28;20024;-65
2023/05/02 00:28:36;;;;;;;26.77;8.70;;;10.50;99.90;;;;;;5039364;28;20049;-65
2023/05/02 00:31:03;;;;;;;17.83;7.68;;;10.40;99.90;;;;;;5038080;28;20502;-65
2023/05/02 00:33:28;;;;;;;15.15;6.60;;;10.40;99.90;;;;;;5035193;28;20111;-67
2023/05/02 00:35:54;;;;;;;20.75;7.45;;;10.40;99.90;;;;;;5040395;28;20187;-66
2023/05/02 00:38:19;;;;;;;12.50;4.93;;;10.30;99.90;;;;;;5040126;28;20037;-66
2023/05/02 00:40:47;;;;;;;19.02;5.88;;;10.30;99.90;;;;;;5037809;28;20056;-66
2023/05/02 00:43:13;;;;;;;22.25;6.53;;;10.20;99.90;;;;;;5038906;28;20856;-67
2023/05/02 00:45:40;;;;;;;22.00;6.65;;;10.20;99.90;;;;;;5038448;28;20079;-68
2023/05/02 00:48:07;;;;;;;21.40;6.95;;;10.20;99.90;;;;;;5036408;28;20052;-66
2023/05/02 00:50:37;;;;;;;17.45;4.88;;;10.20;99.90;;;;;;5038703;28;20111;-65
2023/05/02 00:53:04;;;;;;;17.50;5.80;;;10.10;99.90;;;;;;5040234;28;20067;-66
2023/05/02 00:55:32;;;;;;;15.93;5.03;;;10.00;99.90;;;;;;5040408;28;20029;-67
2023/05/02 00:57:59;;;;;;;19.90;6.95;;;10.10;99.90;;;;;;5034665;28;20129;-65
2023/05/02 01:00:47;;;;;;;14.48;5.72;;;10.00;99.90;;;;;;5040205;28;20261;-66
2023/05/02 01:03:35;;;;;;;17.70;5.63;;;10.00;99.90;;;;;;5022025;28;20049;-66
2023/05/02 01:06:36;;;;;;;20.45;5.80;;;10.00;99.90;;;;;;5053938;28;20179;-65
2023/05/02 01:09:30;;;;;;;14.18;4.95;;;9.90;99.90;;;;;;5037765;28;20472;-67
2023/05/02 01:12:03;;;;;;;10.23;4.30;;;9.90;99.90;;;;;;5038867;28;20059;-66
2023/05/02 01:14:32;;;;;;;16.35;5.18;;;9.90;99.90;;;;;;5037266;28;20041;-66
2023/05/02 01:17:03;;;;;;;18.50;5.28;;;9.90;99.90;;;;;;5038356;28;20036;-65
2023/05/02 01:19:34;;;;;;;12.23;4.18;;;9.80;99.90;;;;;;5038721;28;20047;-67
2023/05/02 01:22:03;;;;;;;15.90;5.43;;;9.90;99.90;;;;;;5037170;28;20037;-66
2023/05/02 01:24:35;;;;;;;16.00;5.72;;;9.80;99.90;;;;;;5038502;28;20048;-65
2023/05/02 01:27:26;;;;;;;13.30;5.22;;;9.80;99.90;;;;;;5038223;28;20036;-64
2023/05/02 01:29:53;;;;;;;10.77;4.68;;;9.80;99.90;;;;;;5037022;28;20132;-67
2023/05/02 01:32:22;;;;;;;15.27;4.88;;;9.80;99.90;;;;;;5038556;28;20041;-67
2023/05/02 01:34:51;;;;;;;14.55;5.13;;;9.70;99.90;;;;;;5034722;28;20044;-66
2023/05/02 01:37:17;;;;;;;8.63;3.30;;;9.70;99.90;;;;;;5036444;28;20044;-66
2023/05/02 01:39:43;;;;;;;11.88;4.50;;;9.70;99.90;;;;;;5037820;28;20267;-66
2023/05/02 01:42:12;;;;;;;10.85;3.95;;;9.80;99.90;;;;;;5036108;28;20422;-66
2023/05/02 01:44:38;;;;;;;14.32;4.53;;;9.70;99.90;;;;;;5040442;28;20029;-66
2023/05/02 01:47:06;;;;;;;10.15;4.25;;;9.70;99.90;;;;;;5033722;28;20055;-66
2023/05/02 01:49:33;;;;;;;9.25;4.28;;;9.60;99.90;;;;;;5035525;28;20090;-67
2023/05/02 01:52:03;;;;;;;12.25;3.92;;;9.60;99.90;;;;;;5034184;28;20048;-67
2023/05/02 01:54:32;;;;;;;11.55;4.22;;;9.50;99.90;;;;;;5036331;28;20067;-65
2023/05/02 01:57:00;;;;;;;13.52;4.80;;;9.60;99.90;;;;;;5037434;28;20316;-67
2023/05/02 01:59:28;;;;;;;11.60;4.65;;;9.50;99.90;;;;;;5036158;28;20067;-66
2023/05/02 02:01:56;;;;;;;14.82;4.78;;;9.40;99.90;;;;;;5032759;28;20045;-67
2023/05/02 02:04:24;;;;;;;16.88;4.57;;;9.40;99.90;;;;;;5036114;28;20053;-68
2023/05/02 02:07:02;;;;;;;15.00;4.50;;;9.50;99.90;;;;;;5040888;28;20120;-65
2023/05/02 02:09:29;;;;;;;12.80;4.40;;;9.40;99.90;;;;;;5035796;28;20066;-67
2023/05/02 02:12:05;;;;;;;14.57;4.72;;;9.50;99.90;;;;;;5035398;28;20317;-67
2023/05/02 02:14:36;;;;;;;7.97;3.88;;;9.40;99.90;;;;;;5037449;28;20060;-67
2023/05/02 02:17:09;;;;;;;12.50;4.55;;;9.40;99.90;;;;;;5038904;28;20024;-67
2023/05/02 02:19:38;;;;;;;10.05;4.10;;;9.50;99.90;;;;;;5038123;28;20063;-66
2023/05/02 02:22:06;;;;;;;8.13;3.25;;;9.50;99.90;;;;;;5037544;28;20076;-66
2023/05/02 02:24:36;;;;;;;14.02;4.07;;;9.50;99.90;;;;;;5037564;28;20044;-66
2023/05/02 02:27:02;;;;;;;11.80;4.22;;;9.60;99.90;;;;;;5038465;28;20049;-67
2023/05/02 02:29:28;;;;;;;7.13;3.38;;;9.50;99.90;;;;;;5034592;28;20068;-66
2023/05/02 02:31:53;;;;;;;8.48;4.22;;;9.50;99.90;;;;;;5037674;28;20056;-67
2023/05/02 02:34:20;;;;;;;10.18;4.13;;;9.50;99.90;;;;;;5035443;28;20459;-67
2023/05/02 02:36:58;;;;;;;8.82;4.18;;;9.50;99.90;;;;;;5036396;28;20040;-67
2023/05/02 02:39:57;;;;;;;8.10;4.22;;;9.50;99.90;;;;;;5031811;28;20511;-67
2023/05/02 02:42:44;;;;;;;15.02;3.67;;;9.50;99.90;;;;;;5032416;28;20154;-66
2023/05/02 02:45:21;;;;;;;11.43;4.13;;;9.50;99.90;;;;;;5039612;28;20372;-66
2023/05/02 02:48:17;;;;;;;18.95;4.35;;;9.40;99.90;;;;;;5036020;28;20056;-67
2023/05/02 02:51:05;;;;;;;15.05;3.95;;;9.20;99.90;;;;;;5043409;28;20057;-65
2023/05/02 02:53:59;;;;;;;12.20;3.72;;;9.00;99.90;;;;;;5036276;28;20423;-64
2023/05/02 02:56:36;;;;;;;18.73;4.57;;;8.90;99.90;;;;;;5036438;28;20041;-64
2023/05/02 02:59:11;;;;;;;20.17;5.38;;;8.80;99.90;;;;;;5034019;28;20036;-65
2023/05/02 03:01:40;;;;;;;11.85;3.10;;;8.80;99.90;;;;;;5035017;28;20053;-65
2023/05/02 03:04:08;;;;;;;21.50;5.10;;;8.70;99.90;;;;;;5037913;28;20041;-65
2023/05/02 03:06:34;;;;;;;26.95;5.25;;;8.70;99.90;;;;;;5057484;28;20695;-65
2023/05/02 03:09:00;;;;;;;24.27;4.72;;;8.60;99.90;;;;;;5038572;28;20044;-65
2023/05/02 03:11:26;;;;;;;25.02;5.88;;;8.60;99.90;;;;;;5041265;28;20063;-65
2023/05/02 03:13:51;;;;;;;31.23;6.57;;;8.60;99.90;;;;;;5038415;28;20040;-65
2023/05/02 03:16:38;;;;;;;18.05;4.60;;;8.60;99.90;;;;;;5040836;28;20523;-65
2023/05/02 03:19:04;;;;;;;25.25;5.45;;;8.60;99.90;;;;;;5052384;28;20048;-65
2023/05/02 03:21:30;;;;;;;18.58;4.40;;;8.60;99.90;;;;;;5042650;28;20040;-66
2023/05/02 03:24:03;;;;;;;22.15;4.80;;;8.60;99.90;;;;;;5036037;28;20226;-67
2023/05/02 03:26:29;;;;;;;23.00;5.28;;;8.50;99.90;;;;;;5041988;28;20051;-65
2023/05/02 03:28:55;;;;;;;20.42;4.65;;;8.40;99.90;;;;;;5035865;28;20053;-68
2023/05/02 03:31:21;;;;;;;17.25;5.15;;;8.40;99.90;;;;;;5039294;28;20140;-65
2023/05/02 03:33:48;;;;;;;18.85;4.80;;;8.30;99.90;;;;;;5002091;28;1026807;-65
2023/05/02 03:36:14;;;;;;;19.48;4.35;;;8.30;99.90;;;;;;5038192;28;20045;-64
2023/05/02 03:38:40;;;;;;;31.45;6.60;;;8.30;99.90;;;;;;5038507;28;20372;-66
2023/05/02 03:41:06;;;;;;;20.10;5.65;;;8.20;99.90;;;;;;5040360;28;20049;-66
2023/05/02 03:43:31;;;;;;;33.97;6.68;;;8.20;99.90;;;;;;5041349;28;20470;-64
2023/05/02 03:46:02;;;;;;;27.48;5.30;;;8.10;99.90;;;;;;5040642;28;20033;-65
2023/05/02 03:48:28;;;;;;;26.98;4.38;;;8.10;99.90;;;;;;5033985;28;20067;-65
2023/05/02 03:50:54;;;;;;;24.58;5.22;;;8.00;99.90;;;;;;5042123;28;20029;-65
2023/05/02 03:53:19;;;;;;;19.50;4.78;;;8.00;99.90;;;;;;5037423;28;20083;-66
2023/05/02 03:55:45;;;;;;;22.75;4.38;;;8.00;99.90;;;;;;5038204;28;20471;-64
2023/05/02 03:58:11;;;;;;;21.92;5.10;;;8.00;99.90;;;;;;5041351;28;20412;-65
2023/05/02 04:00:39;;;;;;;27.58;5.15;;;8.00;99.90;;;;;;5052530;28;20067;-64
2023/05/02 04:03:04;;;;;;;26.50;5.32;;;7.90;99.90;;;;;;5038921;28;20032;-66
2023/05/02 04:05:30;;;;;;;27.02;5.32;;;8.00;99.90;;;;;;5041722;28;20037;-64
2023/05/02 04:07:56;;;;;;;21.80;4.57;;;8.00;99.90;;;;;;5039509;28;20041;-65
2023/05/02 04:10:21;;;;;;;23.77;5.60;;;7.90;99.90;;;;;;5036501;28;20306;-65
2023/05/02 04:12:48;;;;;;;24.48;4.43;;;7.90;99.90;;;;;;5041787;28;20072;-64
2023/05/02 04:15:13;;;;;;;25.23;5.65;;;7.90;99.90;;;;;;5041786;28;20081;-65
2023/05/02 04:17:39;;;;;;;22.27;4.97;;;7.90;99.90;;;;;;5040080;28;20138;-65
2023/05/02 04:20:05;;;;;;;19.30;4.47;;;7.80;99.90;;;;;;5043291;28;20476;-64
2023/05/02 04:22:31;;;;;;;16.27;3.85;;;7.90;99.90;;;;;;5045482;28;20048;-66
2023/05/02 04:24:57;;;;;;;25.65;4.60;;;7.80;99.90;;;;;;5048588;28;20067;-65
2023/05/02 04:27:23;;;;;;;23.65;3.95;;;7.80;99.90;;;;;;5046763;28;20041;-66
2023/05/02 04:29:49;;;;;;;23.15;4.97;;;7.80;99.90;;;;;;5046088;28;20048;-66
2023/05/02 04:32:15;;;;;;;27.98;5.68;;;7.80;99.90;;;;;;5044647;28;20037;-64
2023/05/02 04:34:41;;;;;;;18.65;4.05;;;7.70;99.90;;;;;;5039286;28;20409;-63
2023/05/02 04:37:06;;;;;;;17.80;3.53;;;7.70;99.90;;;;;;5041679;28;20044;-64
2023/05/02 04:39:32;;;;;;;24.05;4.30;;;7.70;99.90;;;;;;5043998;28;20503;-65
2023/05/02 04:41:58;;;;;;;13.35;2.85;;;7.70;99.90;;;;;;5043211;28;20047;-65
2023/05/02 04:44:24;;;;;;;22.27;4.28;;;7.70;99.90;;;;;;5042967;28;20480;-65
2023/05/02 04:46:50;;;;;;;21.83;4.47;;;7.70;99.90;;;;;;5040878;28;20163;-64
2023/05/02 04:49:16;;;;;;;12.52;2.97;;;7.70;99.90;;;;;;5042778;28;20037;-65
2023/05/02 04:51:41;;;;;;;15.88;2.80;;;7.70;99.90;;;;;;5044588;28;20154;-63
2023/05/02 04:54:07;;;;;;;18.60;3.08;;;7.70;99.90;;;;;;5040595;28;20041;-64
2023/05/02 04:56:34;;;;;;;16.98;3.55;;;7.70;99.90;;;;;;5045610;28;20068;-66
2023/05/02 04:58:59;;;;;;;10.45;2.38;;;7.60;99.90;;;;;;5037627;28;20503;-63
2023/05/02 05:01:28;;;;;;;21.60;4.82;;;7.70;99.90;;;;;;5045000;28;20127;-66
2023/05/02 05:03:54;;;;;;;14.27;4.18;;;7.60;99.90;;;;;;5047036;28;20045;-64
2023/05/02 05:06:21;;;;;;;19.35;4.07;;;7.60;99.90;;;;;;5045045;28;20048;-66
2023/05/02 05:08:47;;;;;;;24.15;4.25;;;7.70;99.90;;;;;;5048662;28;20247;-66
2023/05/02 05:11:14;;;;;;;13.63;2.95;;;7.60;99.90;;;;;;5051423;28;20044;-66
2023/05/02 05:13:40;;;;;;;23.75;3.42;;;7.60;99.90;;;;;;5043822;28;20083;-65
2023/05/02 05:16:06;;;;;;;15.35;3.83;;;7.60;99.90;;;;;;5045720;28;20044;-66
2023/05/02 05:18:39;;;;;;;20.73;4.05;;;7.60;99.90;;;;;;5044616;28;20069;-66
2023/05/02 05:21:07;;;;;;;16.52;3.33;;;7.70;99.90;;;;;;5043805;28;20037;-66
2023/05/02 05:23:36;;;;;;;9.48;2.92;;;7.70;99.90;;;;;;5042750;28;20047;-65
2023/05/02 05:26:09;;;;;;;13.95;2.75;;;7.70;99.90;;;;;;5046548;28;20036;-66
2023/05/02 05:28:35;;;;;;;13.32;2.85;;;7.70;99.90;;;;;;5045365;28;20526;-65
2023/05/02 05:31:06;;;;;;;9.52;2.95;;;7.60;99.90;;;;;;5041304;28;20039;-67
2023/05/02 05:33:32;;;;;;;10.02;2.53;;;7.60;99.90;;;;;;5040475;28;20036;-67
2023/05/02 05:36:05;;;;;;;6.32;1.88;;;7.70;99.90;;;;;;5044374;28;20120;-66
2023/05/02 05:38:31;;;;;;;8.55;2.35;;;7.70;99.90;;;;;;5041860;28;20041;-64
2023/05/02 05:40:57;;;;;;;5.93;2.47;;;7.60;99.90;;;;;;5042804;28;20063;-67
2023/05/02 05:43:22;;;;;;;14.88;3.40;;;7.70;99.90;;;;;;5040793;28;20480;-66
2023/05/02 05:45:51;;;;;;;10.60;3.08;;;7.70;99.90;;;;;;5041727;28;20384;-65
2023/05/02 05:48:16;;;;;;;13.20;3.42;;;7.70;99.90;;;;;;5039707;28;20087;-66
2023/05/02 05:50:42;;;;;;;12.23;2.05;;;7.70;99.90;;;;;;5042906;28;20238;-66
2023/05/02 05:53:07;;;;;;;12.10;3.08;;;7.80;99.90;;;;;;5043766;28;20040;-66
2023/05/02 05:55:33;;;;;;;13.50;2.80;;;7.80;99.90;;;;;;5044081;28;20048;-67
2023/05/02 05:57:58;;;;;;;12.23;2.15;;;7.90;99.90;;;;;;5043386;28;20047;-67
2023/05/02 06:00:24;;;;;;;13.32;3.63;;;7.90;99.90;;;;;;5043021;28;20049;-66
2023/05/02 06:02:50;;;;;;;14.43;2.70;;;8.00;99.90;;;;;;5044864;28;20056;-66
2023/05/02 06:05:15;;;;;;;11.95;2.90;;;8.00;99.90;;;;;;5039708;28;20044;-66
2023/05/02 06:07:41;;;;;;;17.02;2.97;;;8.10;99.90;;;;;;5040043;28;20668;-64
2023/05/02 06:10:08;;;;;;;8.88;3.63;;;8.20;99.90;;;;;;5039308;28;20381;-67
2023/05/02 06:12:34;;;;;;;11.35;2.70;;;8.20;99.90;;;;;;5038413;28;20147;-68
2023/05/02 06:15:00;;;;;;;8.48;2.63;;;8.30;99.90;;;;;;5039640;28;20127;-65
2023/05/02 06:17:26;;;;;;;7.82;2.20;;;8.40;99.90;;;;;;5038245;28;20126;-66
2023/05/02 06:19:51;;;;;;;12.95;3.60;;;8.30;99.90;;;;;;5044638;28;20040;-64
2023/05/02 06:22:17;;;;;;;12.00;2.70;;;8.40;99.90;;;;;;5046328;28;20344;-67
2023/05/02 06:24:42;;;;;;;16.17;3.05;;;8.40;99.90;;;;;;5059236;28;20040;-65
2023/05/02 06:27:08;;;;;;;8.98;2.70;;;8.30;99.90;;;;;;5038205;28;20109;-67
2023/05/02 06:29:33;;;;;;;11.27;2.97;;;8.20;99.90;;;;;;5056525;28;20045;-65
2023/05/02 06:31:59;;;;;;;6.25;2.17;;;8.20;99.90;;;;;;5060024;28;20044;-67
2023/05/02 06:34:25;;;;;;;16.27;3.30;;;8.30;99.90;;;;;;5047156;28;20123;-65
2023/05/02 06:36:58;;;;;;;12.77;3.53;;;8.40;99.90;;;;;;5049866;28;20056;-65
2023/05/02 06:39:23;;;;;;;15.50;3.50;;;8.40;99.90;;;;;;5057255;28;20090;-65
2023/05/02 06:41:49;;;;;;;15.63;2.92;;;8.50;99.90;;;;;;5064830;28;20374;-65
2023/05/02 06:44:15;;;;;;;14.50;3.35;;;8.60;99.90;;;;;;5059239;28;20446;-65
2023/05/02 06:46:42;;;;;;;16.80;4.15;;;8.70;99.90;;;;;;5056021;28;20048;-64
2023/05/02 06:49:08;;;;;;;15.43;3.85;;;8.90;99.90;;;;;;5049428;28;20067;-66
2023/05/02 06:51:33;;;;;;;10.65;3.17;;;8.90;99.90;;;;;;5058797;28;20059;-67
2023/05/02 06:53:59;;;;;;;13.07;3.42;;;8.90;99.90;;;;;;5061190;28;20044;-66
2023/05/02 06:56:25;;;;;;;14.80;2.85;;;8.80;99.90;;;;;;5051047;28;20045;-66
2023/05/02 06:58:52;;;;;;;12.50;3.03;;;8.80;99.90;;;;;;5047861;28;20133;-65
2023/05/02 07:01:20;;;;;;;10.27;3.05;;;8.80;99.90;;;;;;5065468;28;20040;-65
2023/05/02 07:03:46;;;;;;;12.73;4.07;;;9.00;99.90;;;;;;5048471;28;20049;-66
2023/05/02 07:06:11;;;;;;;14.60;2.78;;;9.00;99.90;;;;;;5060978;28;20047;-67
2023/05/02 07:08:38;;;;;;;9.50;3.17;;;9.00;99.90;;;;;;5044336;28;20040;-64
2023/05/02 07:11:03;;;;;;;22.60;4.03;;;9.00;99.90;;;;;;5045378;28;20071;-65
2023/05/02 07:13:29;;;;;;;12.20;3.10;;;9.00;99.90;;;;;;5056861;28;20036;-67
2023/05/02 07:15:58;;;;;;;14.20;3.95;;;9.00;99.90;;;;;;5062490;28;20518;-66
2023/05/02 07:18:23;;;;;;;14.45;3.15;;;9.00;99.90;;;;;;5050811;28;20131;-66
2023/05/02 07:20:49;;;;;;;11.35;3.88;;;9.10;99.90;;;;;;5055719;28;20041;-67
2023/05/02 07:23:14;;;;;;;13.68;3.40;;;9.20;99.90;;;;;;5051189;28;20037;-65
2023/05/02 07:25:40;;;;;;;10.25;3.40;;;9.20;99.90;;;;;;5052386;28;20399;-65
2023/05/02 07:28:06;;;;;;;14.63;3.47;;;9.30;99.90;;;;;;5051954;28;20044;-66
2023/05/02 07:30:31;;;;;;;15.07;3.72;;;9.20;99.90;;;;;;5048328;28;20514;-66
2023/05/02 07:32:57;;;;;;;12.68;4.15;;;9.00;99.90;;;;;;5044829;28;20037;-65
2023/05/02 07:35:22;;;;;;;16.52;2.72;;;9.00;99.90;;;;;;5042217;28;20398;-66
2023/05/02 07:37:48;;;;;;;11.45;3.45;;;8.90;99.90;;;;;;5041944;28;20048;-65
2023/05/02 07:40:14;;;;;;;16.65;3.30;;;8.90;99.90;;;;;;5045385;28;20045;-66
2023/05/02 07:42:43;;;;;;;16.73;4.53;;;8.90;99.90;;;;;;5038436;28;20046;-67
2023/05/02 07:45:09;;;;;;;13.40;3.53;;;8.90;99.90;;;;;;5043925;28;20116;-64
2023/05/02 07:47:35;;;;;;;14.00;3.35;;;9.00;99.90;;;;;;5026429;28;20029;-65
2023/05/02 07:50:03;;;;;;;11.35;3.08;;;9.00;99.90;;;;;;5046735;28;20048;-65
2023/05/02 07:52:29;;;;;;;9.80;3.53;;;9.00;99.90;;;;;;5046116;28;20041;-67
2023/05/02 07:54:55;;;;;;;12.10;3.17;;;8.90;99.90;;;;;;5051071;28;20395;-66
2023/05/02 07:57:20;;;;;;;9.75;2.72;;;8.90;99.90;;;;;;5055597;28;20036;-63
2023/05/02 07:59:46;;;;;;;12.00;3.17;;;8.90;99.90;;;;;;5061116;28;20578;-66
2023/05/02 08:02:12;;;;;;;13.70;3.75;;;8.90;99.90;;;;;;5048797;28;20112;-66
2023/05/02 08:04:38;;;;;;;15.00;4.07;;;8.90;99.90;;;;;;5063541;28;20392;-66
2023/05/02 08:07:04;;;;;;;18.90;4.18;;;8.90;99.90;;;;;;5049602;28;20515;-66
2023/05/02 08:09:33;;;;;;;14.05;4.32;;;9.00;99.90;;;;;;5064842;28;20083;-65
2023/05/02 08:11:58;;;;;;;16.65;5.15;;;9.00;99.90;;;;;;5058843;28;20044;-65
2023/05/02 08:14:24;;;;;;;12.25;3.95;;;9.10;99.90;;;;;;5055009;28;20053;-64
2023/05/02 08:16:49;;;;;;;13.90;3.92;;;9.00;99.90;;;;;;5040945;28;20135;-67
2023/05/02 08:19:15;;;;;;;11.75;3.60;;;9.10;99.90;;;;;;5059203;28;20541;-65
2023/05/02 08:21:41;;;;;;;14.52;3.92;;;9.10;99.90;;;;;;5059408;28;20044;-66
2023/05/02 08:24:07;;;;;;;12.05;3.13;;;9.10;99.90;;;;;;5048797;28;20083;-65
2023/05/02 08:26:32;;;;;;;13.27;3.60;;;9.10;99.90;;;;;;5046369;28;20064;-66
2023/05/02 08:28:58;;;;;;;12.57;4.05;;;9.20;99.90;;;;;;5045219;28;20041;-64
2023/05/02 08:31:24;;;;;;;23.58;5.65;;;9.10;99.90;;;;;;5049060;28;20045;-66
2023/05/02 08:33:49;;;;;;;21.67;5.25;;;9.10;99.90;;;;;;5042600;28;20037;-66
2023/05/02 08:36:17;;;;;;;14.52;3.63;;;9.10;99.90;;;;;;5053258;28;20040;-65
2023/05/02 08:38:44;;;;;;;23.00;5.03;;;9.10;99.90;;;;;;5052691;28;20045;-66
2023/05/02 08:41:14;;;;;;;14.70;4.05;;;9.10;99.90;;;;;;5056750;28;20112;-67
2023/05/02 08:43:40;;;;;;;20.77;4.28;;;9.20;99.90;;;;;;5055720;28;20037;-65
2023/05/02 08:46:09;;;;;;;15.75;4.22;;;9.20;99.90;;;;;;5052260;28;20041;-66
2023/05/02 08:48:36;;;;;;;18.90;5.47;;;9.20;99.90;;;;;;5056541;28;20036;-65
2023/05/02 08:51:03;;;;;;;20.45;4.78;;;9.20;99.90;;;;;;5067836;28;20080;-65
2023/05/02 08:53:33;;;;;;;15.18;4.35;;;9.20;99.90;;;;;;5058284;28;20042;-66
2023/05/02 08:55:59;;;;;;;19.30;4.70;;;9.20;99.90;;;;;;5049870;28;20082;-64
2023/05/02 08:58:24;;;;;;;16.25;3.90;;;9.20;99.90;;;;;;5051348;28;20044;-64
2023/05/02 09:00:52;;;;;;;18.63;5.53;;;9.30;99.90;;;;;;5049392;28;20048;-66
2023/05/02 09:03:35;;;;;;;16.95;5.13;;;9.30;99.90;;;;;;5048807;28;20033;-65
2023/05/02 09:06:14;;;;;;;13.70;3.70;;;9.40;99.90;;;;;;5031774;28;20045;-66
2023/05/02 09:08:41;;;;;;;11.48;3.42;;;9.40;99.90;;;;;;5049206;28;20056;-67
2023/05/02 09:11:12;;;;;;;16.05;4.72;;;9.50;99.90;;;;;;5067965;28;20432;-65
2023/05/02 09:13:49;;;;;;;16.48;4.65;;;9.60;99.90;;;;;;5048364;28;20033;-65
2023/05/02 09:16:24;;;;;;;14.95;4.22;;;9.80;99.90;;;;;;5046553;28;20071;-63
2023/05/02 09:18:55;;;;;;;12.65;3.78;;;10.00;99.90;;;;;;5043953;28;20357;-64
2023/05/02 09:21:21;;;;;;;21.75;5.13;;;10.10;99.90;;;;;;5047458;28;20037;-65
2023/05/02 09:23:49;;;;;;;15.68;4.50;;;10.20;99.90;;;;;;5056236;28;20090;-67
2023/05/02 09:26:20;;;;;;;20.65;4.72;;;10.30;99.90;;;;;;5056821;28;20090;-65
2023/05/02 09:28:52;;;;;;;17.70;4.90;;;10.20;99.90;;;;;;5052784;28;20037;-63
2023/05/02 09:31:40;;;;;;;16.33;4.07;;;10.20;99.90;;;;;;5068127;28;20364;-66
2023/05/02 09:34:15;;;;;;;22.50;4.80;;;10.20;99.90;;;;;;5062760;28;20115;-64
2023/05/02 09:36:46;;;;;;;17.98;4.47;;;10.10;99.90;;;;;;5063500;28;20037;-63
2023/05/02 09:39:21;;;;;;;13.93;3.15;;;10.20;99.90;;;;;;5043780;28;20041;-68
2023/05/02 09:41:47;;;;;;;9.15;2.75;;;10.20;99.90;;;;;;5045447;28;20044;-70
2023/05/02 09:44:17;;;;;;;17.48;4.57;;;10.10;99.90;;;;;;5056765;28;20040;-67
2023/05/02 09:46:45;;;;;;;17.40;4.47;;;10.00;99.90;;;;;;5047639;28;20404;-66
2023/05/02 09:49:11;;;;;;;26.17;6.25;;;10.00;99.90;;;;;;5056464;28;20225;-67
2023/05/02 09:51:37;;;;;;;11.18;3.67;;;10.10;99.90;;;;;;5066400;28;20047;-67
2023/05/02 09:54:03;;;;;;;12.80;4.13;;;10.20;99.90;;;;;;5056930;28;20040;-65
2023/05/02 09:56:28;;;;;;;17.83;4.80;;;10.20;99.90;;;;;;5061401;28;20044;-69
2023/05/02 09:59:12;;;;;;;12.13;3.72;;;10.20;99.90;;;;;;5052120;28;20495;-69
2023/05/02 10:01:41;;;;;;;15.07;4.13;;;10.30;99.90;;;;;;5059288;28;20029;-68
2023/05/02 10:04:15;;;;;;;12.57;4.05;;;10.20;99.90;;;;;;5047573;28;20037;-66
2023/05/02 10:06:44;;;;;;;11.98;2.97;;;10.30;99.90;;;;;;5060962;28;20044;-69
2023/05/02 10:09:11;;;;;;;20.90;4.75;;;10.20;99.90;;;;;;5052359;28;20052;-65
2023/05/02 10:11:39;;;;;;;15.18;4.40;;;10.20;99.90;;;;;;5059772;28;20044;-69
2023/05/02 10:14:08;;;;;;;19.95;4.95;;;10.20;99.90;;;;;;5054927;28;20352;-67
2023/05/02 10:16:37;;;;;;;18.77;4.07;;;10.20;99.90;;;;;;5065499;28;20491;-67
2023/05/02 10:19:08;;;;;;;8.40;3.28;;;10.40;99.90;;;;;;5046689;28;20051;-72
2023/05/02 10:21:35;;;;;;;6.07;2.35;;;10.50;99.90;;;;;;5040675;28;20056;-68
2023/05/02 10:24:03;;;;;;;12.48;3.88;;;10.50;99.90;;;;;;5043386;28;20050;-65
2023/05/02 10:26:28;;;;;;;13.57;3.38;;;10.40;99.90;;;;;;5056784;28;20036;-65
2023/05/02 10:28:57;;;;;;;10.57;3.80;;;10.50;99.90;;;;;;5043854;28;20043;-68
2023/05/02 10:31:25;;;;;;;14.75;3.90;;;10.60;99.90;;;;;;5044480;28;20040;-67
2023/05/02 10:33:54;;;;;;;16.10;3.35;;;10.80;99.90;;;;;;5041603;28;20094;-70
2023/05/02 10:36:21;;;;;;;10.07;3.40;;;11.00;99.90;;;;;;5041154;28;20059;-68
2023/05/02 10:38:47;;;;;;;8.02;3.13;;;11.20;99.90;;;;;;5042242;28;20056;-68
2023/05/02 10:41:23;;;;;;;10.55;3.67;;;11.30;99.90;;;;;;5045949;28;21233;-70
2023/05/02 10:43:49;;;;;;;11.38;3.58;;;11.40;99.90;;;;;;5041581;28;20041;-68
2023/05/02 10:46:35;;;;;;;18.85;4.78;;;11.60;99.90;;;;;;5048513;28;20041;-68
2023/05/02 10:49:11;;;;;;;9.65;3.20;;;11.60;99.90;;;;;;5044405;28;20446;-67
2023/05/02 10:51:42;;;;;;;9.32;3.03;;;11.60;99.90;;;;;;5040250;28;20480;-68
2023/05/02 10:54:20;;;;;;;13.95;3.85;;;11.70;99.90;;;;;;5042839;28;20098;-72
2023/05/02 10:57:00;;;;;;;10.63;3.92;;;11.60;99.90;;;;;;5046154;28;20135;-69
2023/05/02 10:59:33;;;;;;;13.23;3.90;;;11.50;99.90;;;;;;5062606;28;20412;-69
2023/05/02 11:02:00;;;;;;;15.80;3.85;;;11.50;99.90;;;;;;5056775;28;20559;-68
2023/05/02 11:04:45;;;;;;;7.90;2.70;;;11.40;99.90;;;;;;5043073;28;20040;-68
2023/05/02 11:07:18;;;;;;;10.07;2.60;;;11.40;99.90;;;;;;5045916;28;20098;-67
2023/05/02 11:09:43;;;;;;;7.07;2.58;;;11.30;99.90;;;;;;5045925;28;20047;-72
2023/05/02 11:12:09;;;;;;;9.35;3.15;;;11.30;99.90;;;;;;5039176;28;20536;-73
2023/05/02 11:14:37;;;;;;;10.48;3.88;;;11.30;99.90;;;;;;5043539;28;20080;-69
2023/05/02 11:17:03;;;;;;;10.15;2.58;;;11.30;99.90;;;;;;5052224;28;20053;-71
2023/05/02 11:19:52;;;;;;;12.68;3.80;;;11.40;99.90;;;;;;5054491;28;20049;-65
2023/05/02 11:22:18;;;;;;;13.45;3.40;;;11.50;99.90;;;;;;5037079;28;20045;-67
2023/05/02 11:24:48;;;;;;;13.23;3.67;;;11.50;99.90;;;;;;5046135;28;20051;-68
2023/05/02 11:27:32;;;;;;;10.07;2.90;;;11.60;99.90;;;;;;5046288;28;20502;-69
2023/05/02 11:30:08;;;;;;;9.48;3.33;;;11.60;99.90;;;;;;5058754;28;20041;-68
2023/05/02 11:32:57;;;;;;;13.80;3.45;;;11.50;99.90;;;;;;5047909;28;20045;-68
2023/05/02 11:35:30;;;;;;;14.38;3.95;;;11.40;99.90;;;;;;5052688;28;20056;-67
2023/05/02 11:37:57;;;;;;;7.88;2.95;;;11.30;99.90;;;;;;5057635;28;20395;-69
2023/05/02 11:40:25;;;;;;;12.50;3.20;;;11.40;99.90;;;;;;5064248;28;20047;-71
2023/05/02 11:42:51;;;;;;;6.65;3.50;;;11.50;99.90;;;;;;5057911;28;20044;-67
2023/05/02 11:45:17;;;;;;;8.35;2.72;;;11.60;99.90;;;;;;5056291;28;20041;-68
2023/05/02 11:47:45;;;;;;;8.27;2.78;;;11.80;99.90;;;;;;5054226;28;20051;-66
2023/05/02 11:50:11;;;;;;;10.25;2.80;;;11.80;99.90;;;;;;5069861;28;20067;-68
2023/05/02 11:52:38;;;;;;;9.80;3.20;;;12.00;99.90;;;;;;5065251;28;20388;-67
2023/05/02 11:55:09;;;;;;;7.30;2.40;;;12.10;99.90;;;;;;5056492;28;20097;-71
2023/05/02 11:57:36;;;;;;;9.90;3.05;;;12.10;99.90;;;;;;5055906;28;20091;-68
2023/05/02 12:00:02;;;;;;;9.80;3.63;;;12.00;99.90;;;;;;5059744;28;20047;-69
2023/05/02 12:02:42;;;;;;;8.88;3.13;;;12.00;99.90;;;;;;5049159;28;20064;-70
2023/05/02 12:05:26;;;;;;;10.98;3.20;;;11.90;99.90;;;;;;5041516;28;20132;-65
2023/05/02 12:07:52;;;;;;;7.82;2.92;;;11.80;99.90;;;;;;5063400;28;20077;-68
2023/05/02 12:10:36;;;;;;;9.57;2.83;;;11.80;99.90;;;;;;5065794;28;20045;-68
2023/05/02 12:13:05;;;;;;;6.82;2.90;;;11.90;99.90;;;;;;5058773;28;20057;-65
2023/05/02 12:15:31;;;;;;;9.27;3.22;;;11.80;99.90;;;;;;5039392;28;20068;-70
2023/05/02 12:17:57;;;;;;;11.23;3.20;;;11.90;99.90;;;;;;5039630;28;20067;-71
2023/05/02 12:20:23;;;;;;;9.82;3.15;;;11.90;99.90;;;;;;5037000;28;20041;-67
2023/05/02 12:22:49;;;;;;;6.65;2.03;;;11.90;99.90;;;;;;5046482;28;20045;-69
2023/05/02 12:25:14;;;;;;;7.10;2.60;;;11.90;99.90;;;;;;5050388;28;20475;-70
2023/05/02 12:27:40;;;;;;;10.98;3.00;;;11.80;99.90;;;;;;5063747;28;20040;-67
2023/05/02 12:30:06;;;;;;;11.07;3.20;;;11.90;99.90;;;;;;5058681;28;20067;-68
2023/05/02 12:32:33;;;;;;;9.30;3.30;;;11.90;99.90;;;;;;5056386;28;20040;-69
2023/05/02 12:35:01;;;;;;;11.45;2.95;;;11.90;99.90;;;;;;5056085;28;20041;-67
2023/05/02 12:37:38;;;;;;;7.90;3.10;;;11.90;99.90;;;;;;5056296;28;20036;-66
2023/05/02 12:40:15;;;;;;;9.60;3.38;;;11.80;99.90;;;;;;5058254;28;20041;-66
2023/05/02 12:42:41;;;;;;;9.32;2.58;;;11.80;99.90;;;;;;5053110;28;20048;-70
2023/05/02 12:45:16;;;;;;;9.85;3.00;;;11.70;99.90;;;;;;5060519;28;20517;-68
2023/05/02 12:47:47;;;;;;;10.77;3.63;;;11.50;99.90;;;;;;5046329;28;20045;-72
2023/05/02 12:50:13;;;;;;;10.18;2.75;;;11.50;99.90;;;;;;5057346;28;20048;-69
2023/05/02 12:52:56;;;;;;;8.60;2.47;;;11.40;99.90;;;;;;5047222;28;20414;-68
2023/05/02 12:55:30;;;;;;;8.93;3.50;;;11.20;99.90;;;;;;5049706;28;20528;-69